sensor_id;sensor_type;location;lat;lon;timestamp;P1;durP1;ratioP1;P2;durP2;ratioP2
58083;SDS011;43882;51.550;11.858;2022-12-26T00:02:17;17.70;;;6.97;;
58083;SDS011;43882;51.550;11.858;2022-12-26T00:04:43;18.30;;;7.57;;
58083;SDS011;43882;51.550;11.858;2022-12-26T00:07:09;16.45;;;6.80;;
58083;SDS011;43882;51.550;11.858;2022-12-26T00:09:35;18.65;;;7.40;;
58083;SDS011;43882;51.550;11.858;2022-12-26T00:12:01;17.60;;;6.80;;
58083;SDS011;43882;51.550;11.858;2022-12-26T00:14:27;18.13;;;6.95;;
58083;SDS011;43882;51.550;11.858;2022-12-26T00:16:53;18.20;;;6.93;;
58083;SDS011;43882;51.550;11.858;2022-12-26T00:19:19;18.27;;;7.30;;
58083;SDS011;43882;51.550;11.858;2022-12-26T00:21:45;18.13;;;7.05;;
58083;SDS011;43882;51.550;11.858;2022-12-26T00:24:11;17.42;;;7.00;;
58083;SDS011;43882;51.550;11.858;2022-12-26T00:26:37;17.20;;;6.78;;
58083;SDS011;43882;51.550;11.858;2022-12-26T00:29:04;19.08;;;7.00;;
58083;SDS011;43882;51.550;11.858;2022-12-26T00:31:31;18.58;;;7.65;;
58083;SDS011;43882;51.550;11.858;2022-12-26T00:33:58;17.75;;;7.55;;
58083;SDS011;43882;51.550;11.858;2022-12-26T00:36:25;19.23;;;7.68;;
58083;SDS011;43882;51.550;11.858;2022-12-26T00:38:54;18.92;;;6.60;;
58083;SDS011;43882;51.550;11.858;2022-12-26T00:41:21;18.20;;;6.72;;
58083;SDS011;43882;51.550;11.858;2022-12-26T00:43:47;33.78;;;13.63;;
58083;SDS011;43882;51.550;11.858;2022-12-26T00:46:13;21.05;;;8.50;;
58083;SDS011;43882;51.550;11.858;2022-12-26T00:48:40;18.02;;;6.70;;
58083;SDS011;43882;51.550;11.858;2022-12-26T00:51:06;17.40;;;6.47;;
58083;SDS011;43882;51.550;11.858;2022-12-26T00:53:32;16.67;;;6.05;;
58083;SDS011;43882;51.550;11.858;2022-12-26T00:55:58;16.80;;;6.70;;
58083;SDS011;43882;51.550;11.858;2022-12-26T00:58:25;18.10;;;6.05;;
58083;SDS011;43882;51.550;11.858;2022-12-26T01:00:51;18.42;;;5.97;;
58083;SDS011;43882;51.550;11.858;2022-12-26T01:03:17;15.88;;;5.82;;
58083;SDS011;43882;51.550;11.858;2022-12-26T01:05:45;16.23;;;5.63;;
58083;SDS011;43882;51.550;11.858;2022-12-26T01:08:13;15.98;;;5.60;;
58083;SDS011;43882;51.550;11.858;2022-12-26T01:10:43;16.40;;;5.63;;
58083;SDS011;43882;51.550;11.858;2022-12-26T01:13:10;15.82;;;5.63;;
58083;SDS011;43882;51.550;11.858;2022-12-26T01:15:36;17.45;;;6.03;;
58083;SDS011;43882;51.550;11.858;2022-12-26T01:18:03;15.95;;;5.22;;
58083;SDS011;43882;51.550;11.858;2022-12-26T01:20:29;16.95;;;5.82;;
58083;SDS011;43882;51.550;11.858;2022-12-26T01:22:55;17.05;;;6.20;;
58083;SDS011;43882;51.550;11.858;2022-12-26T01:25:22;15.93;;;5.43;;
58083;SDS011;43882;51.550;11.858;2022-12-26T01:27:48;16.20;;;5.55;;
58083;SDS011;43882;51.550;11.858;2022-12-26T01:30:15;17.17;;;6.00;;
58083;SDS011;43882;51.550;11.858;2022-12-26T01:32:42;17.08;;;5.70;;
58083;SDS011;43882;51.550;11.858;2022-12-26T01:35:08;15.73;;;5.60;;
58083;SDS011;43882;51.550;11.858;2022-12-26T01:37:34;16.80;;;5.35;;
58083;SDS011;43882;51.550;11.858;2022-12-26T01:40:00;16.23;;;5.10;;
58083;SDS011;43882;51.550;11.858;2022-12-26T01:42:33;16.02;;;5.15;;
58083;SDS011;43882;51.550;11.858;2022-12-26T01:45:23;15.82;;;4.60;;
58083;SDS011;43882;51.550;11.858;2022-12-26T01:48:02;15.05;;;4.82;;
58083;SDS011;43882;51.550;11.858;2022-12-26T01:50:46;16.77;;;5.35;;
58083;SDS011;43882;51.550;11.858;2022-12-26T01:55:52;16.23;;;5.03;;
58083;SDS011;43882;51.550;11.858;2022-12-26T01:58:27;15.35;;;5.00;;
58083;SDS011;43882;51.550;11.858;2022-12-26T02:00:55;15.57;;;4.95;;
58083;SDS011;43882;51.550;11.858;2022-12-26T02:03:22;16.58;;;5.30;;
58083;SDS011;43882;51.550;11.858;2022-12-26T02:06:07;14.60;;;4.93;;
58083;SDS011;43882;51.550;11.858;2022-12-26T02:08:35;15.70;;;5.40;;
58083;SDS011;43882;51.550;11.858;2022-12-26T02:11:18;15.68;;;4.88;;
58083;SDS011;43882;51.550;11.858;2022-12-26T02:14:12;15.15;;;4.95;;
58083;SDS011;43882;51.550;11.858;2022-12-26T02:16:38;14.98;;;4.63;;
58083;SDS011;43882;51.550;11.858;2022-12-26T02:19:06;15.07;;;4.85;;
58083;SDS011;43882;51.550;11.858;2022-12-26T02:21:49;15.07;;;4.72;;
58083;SDS011;43882;51.550;11.858;2022-12-26T02:29:53;15.05;;;4.63;;
58083;SDS011;43882;51.550;11.858;2022-12-26T02:32:38;15.55;;;4.53;;
58083;SDS011;43882;51.550;11.858;2022-12-26T02:38:11;15.18;;;4.32;;
58083;SDS011;43882;51.550;11.858;2022-12-26T02:41:10;14.13;;;4.30;;
58083;SDS011;43882;51.550;11.858;2022-12-26T02:43:54;15.38;;;4.55;;
58083;SDS011;43882;51.550;11.858;2022-12-26T02:50:13;14.82;;;5.03;;
58083;SDS011;43882;51.550;11.858;2022-12-26T02:56:05;15.60;;;4.80;;
58083;SDS011;43882;51.550;11.858;2022-12-26T02:59:01;14.57;;;4.20;;
58083;SDS011;43882;51.550;11.858;2022-12-26T03:02:02;14.30;;;4.50;;
58083;SDS011;43882;51.550;11.858;2022-12-26T03:04:48;15.43;;;4.10;;
58083;SDS011;43882;51.550;11.858;2022-12-26T03:07:34;14.60;;;4.00;;
58083;SDS011;43882;51.550;11.858;2022-12-26T03:10:24;14.68;;;4.28;;
58083;SDS011;43882;51.550;11.858;2022-12-26T03:13:14;13.80;;;4.53;;
58083;SDS011;43882;51.550;11.858;2022-12-26T03:18:39;13.50;;;4.63;;
58083;SDS011;43882;51.550;11.858;2022-12-26T03:21:08;13.85;;;3.83;;
58083;SDS011;43882;51.550;11.858;2022-12-26T03:23:35;14.30;;;4.20;;
58083;SDS011;43882;51.550;11.858;2022-12-26T03:26:08;14.90;;;4.18;;
58083;SDS011;43882;51.550;11.858;2022-12-26T03:28:55;14.98;;;4.53;;
58083;SDS011;43882;51.550;11.858;2022-12-26T03:31:41;15.13;;;5.20;;
58083;SDS011;43882;51.550;11.858;2022-12-26T03:34:07;14.13;;;4.13;;
58083;SDS011;43882;51.550;11.858;2022-12-26T03:39:58;14.50;;;4.10;;
58083;SDS011;43882;51.550;11.858;2022-12-26T03:42:50;13.75;;;4.20;;
58083;SDS011;43882;51.550;11.858;2022-12-26T03:51:26;14.70;;;4.30;;
58083;SDS011;43882;51.550;11.858;2022-12-26T03:54:21;14.18;;;4.50;;
58083;SDS011;43882;51.550;11.858;2022-12-26T03:57:34;13.57;;;3.95;;
58083;SDS011;43882;51.550;11.858;2022-12-26T04:00:47;14.57;;;4.22;;
58083;SDS011;43882;51.550;11.858;2022-12-26T04:03:32;14.63;;;4.20;;
58083;SDS011;43882;51.550;11.858;2022-12-26T04:06:19;15.77;;;4.30;;
58083;SDS011;43882;51.550;11.858;2022-12-26T04:09:09;14.63;;;4.22;;
58083;SDS011;43882;51.550;11.858;2022-12-26T04:11:59;14.73;;;4.40;;
58083;SDS011;43882;51.550;11.858;2022-12-26T04:14:52;14.15;;;3.97;;
58083;SDS011;43882;51.550;11.858;2022-12-26T04:17:46;14.40;;;4.40;;
58083;SDS011;43882;51.550;11.858;2022-12-26T04:24:18;14.93;;;4.50;;
58083;SDS011;43882;51.550;11.858;2022-12-26T04:27:07;15.38;;;4.22;;
58083;SDS011;43882;51.550;11.858;2022-12-26T04:29:54;15.20;;;4.53;;
58083;SDS011;43882;51.550;11.858;2022-12-26T04:32:47;15.50;;;4.53;;
58083;SDS011;43882;51.550;11.858;2022-12-26T04:35:51;14.13;;;4.72;;
58083;SDS011;43882;51.550;11.858;2022-12-26T04:38:50;16.67;;;4.50;;
58083;SDS011;43882;51.550;11.858;2022-12-26T04:41:37;15.68;;;4.63;;
58083;SDS011;43882;51.550;11.858;2022-12-26T04:44:23;15.32;;;4.15;;
58083;SDS011;43882;51.550;11.858;2022-12-26T04:46:51;15.27;;;4.40;;
58083;SDS011;43882;51.550;11.858;2022-12-26T04:49:18;16.10;;;4.82;;
58083;SDS011;43882;51.550;11.858;2022-12-26T04:52:07;16.08;;;4.65;;
58083;SDS011;43882;51.550;11.858;2022-12-26T04:54:34;15.70;;;4.68;;
58083;SDS011;43882;51.550;11.858;2022-12-26T04:57:00;15.20;;;4.40;;
58083;SDS011;43882;51.550;11.858;2022-12-26T04:59:27;16.35;;;5.20;;
58083;SDS011;43882;51.550;11.858;2022-12-26T05:01:53;16.58;;;5.10;;
58083;SDS011;43882;51.550;11.858;2022-12-26T05:04:38;16.60;;;4.60;;
58083;SDS011;43882;51.550;11.858;2022-12-26T05:07:29;17.95;;;4.50;;
58083;SDS011;43882;51.550;11.858;2022-12-26T05:12:48;15.57;;;4.55;;
58083;SDS011;43882;51.550;11.858;2022-12-26T05:15:15;14.80;;;4.65;;
58083;SDS011;43882;51.550;11.858;2022-12-26T05:17:41;15.30;;;4.85;;
58083;SDS011;43882;51.550;11.858;2022-12-26T05:20:26;15.18;;;4.43;;
58083;SDS011;43882;51.550;11.858;2022-12-26T05:23:14;17.75;;;4.30;;
58083;SDS011;43882;51.550;11.858;2022-12-26T05:26:24;15.68;;;4.50;;
58083;SDS011;43882;51.550;11.858;2022-12-26T05:29:09;15.47;;;4.83;;
58083;SDS011;43882;51.550;11.858;2022-12-26T05:31:35;14.52;;;4.50;;
58083;SDS011;43882;51.550;11.858;2022-12-26T05:34:01;15.13;;;4.20;;
58083;SDS011;43882;51.550;11.858;2022-12-26T05:36:46;15.25;;;4.22;;
58083;SDS011;43882;51.550;11.858;2022-12-26T05:39:13;15.55;;;4.75;;
58083;SDS011;43882;51.550;11.858;2022-12-26T05:41:40;16.45;;;4.78;;
58083;SDS011;43882;51.550;11.858;2022-12-26T05:44:07;13.93;;;4.00;;
58083;SDS011;43882;51.550;11.858;2022-12-26T05:46:34;14.48;;;4.32;;
58083;SDS011;43882;51.550;11.858;2022-12-26T05:49:00;15.65;;;4.18;;
58083;SDS011;43882;51.550;11.858;2022-12-26T05:51:26;14.68;;;4.40;;
58083;SDS011;43882;51.550;11.858;2022-12-26T05:53:52;15.55;;;4.32;;
58083;SDS011;43882;51.550;11.858;2022-12-26T05:56:18;14.32;;;4.07;;
58083;SDS011;43882;51.550;11.858;2022-12-26T05:58:45;14.77;;;4.25;;
58083;SDS011;43882;51.550;11.858;2022-12-26T06:01:13;16.65;;;4.28;;
58083;SDS011;43882;51.550;11.858;2022-12-26T06:03:41;15.48;;;4.50;;
58083;SDS011;43882;51.550;11.858;2022-12-26T06:06:11;14.10;;;4.15;;
58083;SDS011;43882;51.550;11.858;2022-12-26T06:08:37;15.90;;;4.57;;
58083;SDS011;43882;51.550;11.858;2022-12-26T06:11:04;15.32;;;4.30;;
58083;SDS011;43882;51.550;11.858;2022-12-26T06:13:31;14.23;;;4.13;;
58083;SDS011;43882;51.550;11.858;2022-12-26T06:15:57;14.85;;;4.40;;
58083;SDS011;43882;51.550;11.858;2022-12-26T06:18:24;16.95;;;4.43;;
58083;SDS011;43882;51.550;11.858;2022-12-26T06:20:50;14.13;;;4.15;;
58083;SDS011;43882;51.550;11.858;2022-12-26T06:23:17;15.85;;;5.05;;
58083;SDS011;43882;51.550;11.858;2022-12-26T06:25:43;16.25;;;4.45;;
58083;SDS011;43882;51.550;11.858;2022-12-26T06:28:09;15.75;;;4.50;;
58083;SDS011;43882;51.550;11.858;2022-12-26T06:30:35;14.10;;;4.38;;
58083;SDS011;43882;51.550;11.858;2022-12-26T06:33:01;16.35;;;4.60;;
58083;SDS011;43882;51.550;11.858;2022-12-26T06:35:27;16.17;;;4.38;;
58083;SDS011;43882;51.550;11.858;2022-12-26T06:37:53;16.60;;;4.60;;
58083;SDS011;43882;51.550;11.858;2022-12-26T06:40:19;14.73;;;4.30;;
58083;SDS011;43882;51.550;11.858;2022-12-26T06:42:45;17.15;;;4.70;;
58083;SDS011;43882;51.550;11.858;2022-12-26T06:45:11;15.68;;;4.60;;
58083;SDS011;43882;51.550;11.858;2022-12-26T06:47:37;15.85;;;4.65;;
58083;SDS011;43882;51.550;11.858;2022-12-26T06:50:03;14.20;;;3.63;;
58083;SDS011;43882;51.550;11.858;2022-12-26T06:52:30;13.93;;;4.30;;
58083;SDS011;43882;51.550;11.858;2022-12-26T06:54:56;16.48;;;4.35;;
58083;SDS011;43882;51.550;11.858;2022-12-26T06:57:22;16.92;;;4.20;;
58083;SDS011;43882;51.550;11.858;2022-12-26T06:59:48;15.90;;;5.03;;
58083;SDS011;43882;51.550;11.858;2022-12-26T07:02:15;15.95;;;4.20;;
58083;SDS011;43882;51.550;11.858;2022-12-26T07:04:41;16.02;;;4.20;;
58083;SDS011;43882;51.550;11.858;2022-12-26T07:07:07;14.60;;;4.15;;
58083;SDS011;43882;51.550;11.858;2022-12-26T07:09:33;17.52;;;4.32;;
58083;SDS011;43882;51.550;11.858;2022-12-26T07:11:59;14.88;;;4.07;;
58083;SDS011;43882;51.550;11.858;2022-12-26T07:14:25;16.17;;;4.20;;
58083;SDS011;43882;51.550;11.858;2022-12-26T07:16:51;14.90;;;4.18;;
58083;SDS011;43882;51.550;11.858;2022-12-26T07:19:17;13.52;;;3.92;;
58083;SDS011;43882;51.550;11.858;2022-12-26T07:21:43;14.50;;;3.78;;
58083;SDS011;43882;51.550;11.858;2022-12-26T07:24:17;14.63;;;3.95;;
58083;SDS011;43882;51.550;11.858;2022-12-26T07:26:45;14.10;;;3.90;;
58083;SDS011;43882;51.550;11.858;2022-12-26T07:29:11;14.45;;;4.05;;
58083;SDS011;43882;51.550;11.858;2022-12-26T07:31:38;15.00;;;4.30;;
58083;SDS011;43882;51.550;11.858;2022-12-26T07:34:05;15.55;;;4.53;;
58083;SDS011;43882;51.550;11.858;2022-12-26T07:36:31;16.92;;;5.05;;
58083;SDS011;43882;51.550;11.858;2022-12-26T07:38:57;15.30;;;4.88;;
58083;SDS011;43882;51.550;11.858;2022-12-26T07:41:23;16.08;;;5.28;;
58083;SDS011;43882;51.550;11.858;2022-12-26T07:44:08;16.35;;;4.68;;
58083;SDS011;43882;51.550;11.858;2022-12-26T07:46:35;16.52;;;4.65;;
58083;SDS011;43882;51.550;11.858;2022-12-26T07:49:01;15.85;;;5.40;;
58083;SDS011;43882;51.550;11.858;2022-12-26T07:51:28;15.18;;;4.60;;
58083;SDS011;43882;51.550;11.858;2022-12-26T07:53:54;17.00;;;5.00;;
58083;SDS011;43882;51.550;11.858;2022-12-26T07:56:20;15.77;;;4.78;;
58083;SDS011;43882;51.550;11.858;2022-12-26T07:58:47;15.70;;;4.32;;
58083;SDS011;43882;51.550;11.858;2022-12-26T08:01:14;14.98;;;4.07;;
58083;SDS011;43882;51.550;11.858;2022-12-26T08:03:40;15.52;;;4.60;;
58083;SDS011;43882;51.550;11.858;2022-12-26T08:06:08;13.95;;;4.07;;
58083;SDS011;43882;51.550;11.858;2022-12-26T08:08:34;18.08;;;4.95;;
58083;SDS011;43882;51.550;11.858;2022-12-26T08:11:01;16.17;;;4.22;;
58083;SDS011;43882;51.550;11.858;2022-12-26T08:13:29;19.35;;;4.70;;
58083;SDS011;43882;51.550;11.858;2022-12-26T08:15:55;14.70;;;4.35;;
58083;SDS011;43882;51.550;11.858;2022-12-26T08:18:21;16.75;;;4.32;;
58083;SDS011;43882;51.550;11.858;2022-12-26T08:20:48;16.42;;;4.07;;
58083;SDS011;43882;51.550;11.858;2022-12-26T08:23:14;15.07;;;3.80;;
58083;SDS011;43882;51.550;11.858;2022-12-26T08:25:41;14.98;;;4.10;;
58083;SDS011;43882;51.550;11.858;2022-12-26T08:28:07;15.50;;;4.00;;
58083;SDS011;43882;51.550;11.858;2022-12-26T08:30:33;16.20;;;4.40;;
58083;SDS011;43882;51.550;11.858;2022-12-26T08:33:02;14.32;;;4.00;;
58083;SDS011;43882;51.550;11.858;2022-12-26T08:35:28;15.43;;;4.35;;
58083;SDS011;43882;51.550;11.858;2022-12-26T08:37:54;14.93;;;4.30;;
58083;SDS011;43882;51.550;11.858;2022-12-26T08:40:20;15.30;;;4.38;;
58083;SDS011;43882;51.550;11.858;2022-12-26T08:42:46;15.77;;;4.53;;
58083;SDS011;43882;51.550;11.858;2022-12-26T08:45:12;15.70;;;4.32;;
58083;SDS011;43882;51.550;11.858;2022-12-26T08:47:38;15.23;;;4.13;;
58083;SDS011;43882;51.550;11.858;2022-12-26T08:50:05;13.73;;;3.90;;
58083;SDS011;43882;51.550;11.858;2022-12-26T08:52:31;16.42;;;4.50;;
58083;SDS011;43882;51.550;11.858;2022-12-26T08:54:59;12.68;;;3.80;;
58083;SDS011;43882;51.550;11.858;2022-12-26T08:57:26;14.88;;;3.95;;
58083;SDS011;43882;51.550;11.858;2022-12-26T08:59:52;16.23;;;4.05;;
58083;SDS011;43882;51.550;11.858;2022-12-26T09:02:18;14.80;;;3.83;;
58083;SDS011;43882;51.550;11.858;2022-12-26T09:04:44;15.55;;;4.20;;
58083;SDS011;43882;51.550;11.858;2022-12-26T09:07:10;16.55;;;4.43;;
58083;SDS011;43882;51.550;11.858;2022-12-26T09:09:36;14.38;;;3.85;;
58083;SDS011;43882;51.550;11.858;2022-12-26T09:12:03;15.18;;;4.00;;
58083;SDS011;43882;51.550;11.858;2022-12-26T09:14:29;15.15;;;3.97;;
58083;SDS011;43882;51.550;11.858;2022-12-26T09:16:55;13.63;;;3.72;;
58083;SDS011;43882;51.550;11.858;2022-12-26T09:19:21;15.00;;;3.90;;
58083;SDS011;43882;51.550;11.858;2022-12-26T09:21:48;14.60;;;3.85;;
58083;SDS011;43882;51.550;11.858;2022-12-26T09:24:34;15.40;;;4.18;;
58083;SDS011;43882;51.550;11.858;2022-12-26T09:27:01;14.50;;;4.25;;
58083;SDS011;43882;51.550;11.858;2022-12-26T09:29:27;15.43;;;4.18;;
58083;SDS011;43882;51.550;11.858;2022-12-26T09:31:54;15.80;;;4.72;;
58083;SDS011;43882;51.550;11.858;2022-12-26T09:34:21;17.83;;;6.75;;
58083;SDS011;43882;51.550;11.858;2022-12-26T09:36:47;16.98;;;5.97;;
58083;SDS011;43882;51.550;11.858;2022-12-26T09:39:13;16.17;;;4.65;;
58083;SDS011;43882;51.550;11.858;2022-12-26T09:41:43;17.13;;;5.63;;
58083;SDS011;43882;51.550;11.858;2022-12-26T09:44:19;18.40;;;5.82;;
58083;SDS011;43882;51.550;11.858;2022-12-26T09:49:31;16.08;;;5.03;;
58083;SDS011;43882;51.550;11.858;2022-12-26T09:52:10;16.15;;;4.72;;
58083;SDS011;43882;51.550;11.858;2022-12-26T09:54:53;15.35;;;4.78;;
58083;SDS011;43882;51.550;11.858;2022-12-26T09:57:31;15.23;;;4.45;;
58083;SDS011;43882;51.550;11.858;2022-12-26T10:00:04;16.13;;;4.93;;
58083;SDS011;43882;51.550;11.858;2022-12-26T10:02:31;13.63;;;3.65;;
58083;SDS011;43882;51.550;11.858;2022-12-26T10:04:58;14.38;;;3.85;;
58083;SDS011;43882;51.550;11.858;2022-12-26T10:10:09;15.00;;;3.70;;
58083;SDS011;43882;51.550;11.858;2022-12-26T10:15:26;13.57;;;3.70;;
58083;SDS011;43882;51.550;11.858;2022-12-26T10:17:58;11.32;;;3.08;;
58083;SDS011;43882;51.550;11.858;2022-12-26T10:23:25;9.32;;;2.40;;
58083;SDS011;43882;51.550;11.858;2022-12-26T10:31:43;8.15;;;1.98;;
58083;SDS011;43882;51.550;11.858;2022-12-26T10:36:43;6.05;;;1.90;;
58083;SDS011;43882;51.550;11.858;2022-12-26T10:41:51;6.47;;;1.75;;
58083;SDS011;43882;51.550;11.858;2022-12-26T10:44:21;5.82;;;2.17;;
58083;SDS011;43882;51.550;11.858;2022-12-26T10:46:58;5.35;;;1.60;;
58083;SDS011;43882;51.550;11.858;2022-12-26T10:49:32;8.60;;;2.22;;
58083;SDS011;43882;51.550;11.858;2022-12-26T10:51:58;19.98;;;9.10;;
58083;SDS011;43882;51.550;11.858;2022-12-26T10:54:26;14.70;;;4.55;;
58083;SDS011;43882;51.550;11.858;2022-12-26T10:56:53;8.07;;;2.30;;
58083;SDS011;43882;51.550;11.858;2022-12-26T10:59:22;10.52;;;2.30;;
58083;SDS011;43882;51.550;11.858;2022-12-26T11:02:10;11.90;;;2.85;;
58083;SDS011;43882;51.550;11.858;2022-12-26T11:04:39;9.73;;;2.58;;
58083;SDS011;43882;51.550;11.858;2022-12-26T11:07:26;9.15;;;2.50;;
58083;SDS011;43882;51.550;11.858;2022-12-26T11:10:04;6.95;;;2.08;;
58083;SDS011;43882;51.550;11.858;2022-12-26T11:12:39;7.40;;;2.42;;
58083;SDS011;43882;51.550;11.858;2022-12-26T11:18:07;9.80;;;2.33;;
58083;SDS011;43882;51.550;11.858;2022-12-26T11:20:52;11.15;;;3.42;;
58083;SDS011;43882;51.550;11.858;2022-12-26T11:25:53;14.05;;;3.50;;
58083;SDS011;43882;51.550;11.858;2022-12-26T11:28:38;19.20;;;8.60;;
58083;SDS011;43882;51.550;11.858;2022-12-26T11:31:05;14.68;;;3.97;;
58083;SDS011;43882;51.550;11.858;2022-12-26T11:33:35;30.10;;;12.90;;
58083;SDS011;43882;51.550;11.858;2022-12-26T11:36:08;13.35;;;3.10;;
58083;SDS011;43882;51.550;11.858;2022-12-26T11:41:30;14.02;;;3.92;;
58083;SDS011;43882;51.550;11.858;2022-12-26T11:46:46;9.88;;;2.95;;
58083;SDS011;43882;51.550;11.858;2022-12-26T11:49:17;8.98;;;2.50;;
58083;SDS011;43882;51.550;11.858;2022-12-26T11:51:49;9.73;;;2.90;;
58083;SDS011;43882;51.550;11.858;2022-12-26T11:54:17;17.60;;;7.72;;
58083;SDS011;43882;51.550;11.858;2022-12-26T11:57:04;17.60;;;8.63;;
58083;SDS011;43882;51.550;11.858;2022-12-26T11:59:35;16.05;;;6.57;;
58083;SDS011;43882;51.550;11.858;2022-12-26T12:02:24;13.77;;;3.80;;
58083;SDS011;43882;51.550;11.858;2022-12-26T12:04:49;12.02;;;3.22;;
58083;SDS011;43882;51.550;11.858;2022-12-26T12:07:33;10.00;;;2.70;;
58083;SDS011;43882;51.550;11.858;2022-12-26T12:16:48;8.13;;;2.30;;
58083;SDS011;43882;51.550;11.858;2022-12-26T12:21:48;8.48;;;1.80;;
58083;SDS011;43882;51.550;11.858;2022-12-26T12:24:32;10.85;;;2.40;;
58083;SDS011;43882;51.550;11.858;2022-12-26T12:38:01;10.98;;;2.47;;
58083;SDS011;43882;51.550;11.858;2022-12-26T12:43:52;7.88;;;2.15;;
58083;SDS011;43882;51.550;11.858;2022-12-26T12:46:32;10.20;;;2.38;;
58083;SDS011;43882;51.550;11.858;2022-12-26T12:49:33;9.20;;;2.33;;
58083;SDS011;43882;51.550;11.858;2022-12-26T13:00:22;6.20;;;1.80;;
58083;SDS011;43882;51.550;11.858;2022-12-26T13:05:41;9.63;;;2.20;;
58083;SDS011;43882;51.550;11.858;2022-12-26T13:08:11;6.88;;;2.20;;
58083;SDS011;43882;51.550;11.858;2022-12-26T13:10:48;7.65;;;2.00;;
58083;SDS011;43882;51.550;11.858;2022-12-26T13:13:19;7.05;;;1.80;;
58083;SDS011;43882;51.550;11.858;2022-12-26T13:15:47;6.00;;;1.50;;
58083;SDS011;43882;51.550;11.858;2022-12-26T13:18:16;6.80;;;2.00;;
58083;SDS011;43882;51.550;11.858;2022-12-26T13:20:47;5.68;;;1.60;;
58083;SDS011;43882;51.550;11.858;2022-12-26T13:23:24;6.30;;;2.00;;
58083;SDS011;43882;51.550;11.858;2022-12-26T13:26:18;4.78;;;1.65;;
58083;SDS011;43882;51.550;11.858;2022-12-26T13:29:03;6.78;;;2.00;;
58083;SDS011;43882;51.550;11.858;2022-12-26T13:31:34;8.30;;;2.10;;
58083;SDS011;43882;51.550;11.858;2022-12-26T13:34:02;6.28;;;1.90;;
58083;SDS011;43882;51.550;11.858;2022-12-26T13:44:43;8.30;;;2.13;;
58083;SDS011;43882;51.550;11.858;2022-12-26T13:47:29;7.88;;;2.13;;
58083;SDS011;43882;51.550;11.858;2022-12-26T13:49:57;6.97;;;2.17;;
58083;SDS011;43882;51.550;11.858;2022-12-26T13:52:30;3.72;;;1.55;;
58083;SDS011;43882;51.550;11.858;2022-12-26T14:00:15;13.23;;;2.90;;
58083;SDS011;43882;51.550;11.858;2022-12-26T14:13:54;7.18;;;2.20;;
58083;SDS011;43882;51.550;11.858;2022-12-26T14:19:57;8.55;;;2.30;;
58083;SDS011;43882;51.550;11.858;2022-12-26T14:23:06;10.57;;;2.50;;
58083;SDS011;43882;51.550;11.858;2022-12-26T14:28:13;6.80;;;2.25;;
58083;SDS011;43882;51.550;11.858;2022-12-26T14:31:15;8.27;;;2.03;;
58083;SDS011;43882;51.550;11.858;2022-12-26T14:33:57;7.22;;;2.00;;
58083;SDS011;43882;51.550;11.858;2022-12-26T14:36:34;6.93;;;2.00;;
58083;SDS011;43882;51.550;11.858;2022-12-26T14:39:42;5.90;;;2.00;;
58083;SDS011;43882;51.550;11.858;2022-12-26T14:42:20;7.65;;;2.28;;
58083;SDS011;43882;51.550;11.858;2022-12-26T14:47:53;8.05;;;2.00;;
58083;SDS011;43882;51.550;11.858;2022-12-26T14:50:40;5.63;;;1.90;;
58083;SDS011;43882;51.550;11.858;2022-12-26T14:58:24;17.13;;;4.25;;
58083;SDS011;43882;51.550;11.858;2022-12-26T15:00:54;16.83;;;4.68;;
58083;SDS011;43882;51.550;11.858;2022-12-26T15:16:43;8.77;;;2.28;;
58083;SDS011;43882;51.550;11.858;2022-12-26T15:33:33;8.27;;;2.53;;
58083;SDS011;43882;51.550;11.858;2022-12-26T15:38:47;11.60;;;3.10;;
58083;SDS011;43882;51.550;11.858;2022-12-26T15:41:44;11.20;;;2.80;;
58083;SDS011;43882;51.550;11.858;2022-12-26T15:46:42;15.18;;;4.15;;
58083;SDS011;43882;51.550;11.858;2022-12-26T15:49:38;13.00;;;3.20;;
58083;SDS011;43882;51.550;11.858;2022-12-26T15:55:28;10.93;;;2.75;;
58083;SDS011;43882;51.550;11.858;2022-12-26T15:58:07;11.32;;;3.10;;
58083;SDS011;43882;51.550;11.858;2022-12-26T16:00:54;11.48;;;2.90;;
58083;SDS011;43882;51.550;11.858;2022-12-26T16:03:24;9.75;;;2.70;;
58083;SDS011;43882;51.550;11.858;2022-12-26T16:10:14;8.93;;;2.60;;
58083;SDS011;43882;51.550;11.858;2022-12-26T16:14:48;8.35;;;2.45;;
58083;SDS011;43882;51.550;11.858;2022-12-26T16:17:16;10.52;;;2.80;;
58083;SDS011;43882;51.550;11.858;2022-12-26T16:19:45;10.15;;;2.70;;
58083;SDS011;43882;51.550;11.858;2022-12-26T16:22:24;10.65;;;2.80;;
58083;SDS011;43882;51.550;11.858;2022-12-26T16:25:08;10.18;;;2.50;;
58083;SDS011;43882;51.550;11.858;2022-12-26T16:27:36;10.25;;;2.63;;
58083;SDS011;43882;51.550;11.858;2022-12-26T16:30:04;7.50;;;2.40;;
58083;SDS011;43882;51.550;11.858;2022-12-26T16:32:36;10.95;;;2.60;;
58083;SDS011;43882;51.550;11.858;2022-12-26T16:35:05;11.65;;;3.08;;
58083;SDS011;43882;51.550;11.858;2022-12-26T16:37:37;8.95;;;2.38;;
58083;SDS011;43882;51.550;11.858;2022-12-26T16:42:31;11.27;;;2.63;;
58083;SDS011;43882;51.550;11.858;2022-12-26T16:44:58;10.15;;;2.60;;
58083;SDS011;43882;51.550;11.858;2022-12-26T16:47:24;11.35;;;2.53;;
58083;SDS011;43882;51.550;11.858;2022-12-26T16:49:55;13.55;;;3.10;;
58083;SDS011;43882;51.550;11.858;2022-12-26T16:52:29;23.58;;;8.68;;
58083;SDS011;43882;51.550;11.858;2022-12-26T16:57:52;10.90;;;2.90;;
58083;SDS011;43882;51.550;11.858;2022-12-26T17:00:20;10.93;;;2.90;;
58083;SDS011;43882;51.550;11.858;2022-12-26T17:02:48;11.38;;;3.00;;
58083;SDS011;43882;51.550;11.858;2022-12-26T17:05:19;11.07;;;2.92;;
58083;SDS011;43882;51.550;11.858;2022-12-26T17:07:48;10.32;;;2.88;;
58083;SDS011;43882;51.550;11.858;2022-12-26T17:10:19;9.95;;;2.80;;
58083;SDS011;43882;51.550;11.858;2022-12-26T17:12:47;11.07;;;3.10;;
58083;SDS011;43882;51.550;11.858;2022-12-26T17:15:24;12.25;;;3.08;;
58083;SDS011;43882;51.550;11.858;2022-12-26T17:17:52;11.23;;;3.10;;
58083;SDS011;43882;51.550;11.858;2022-12-26T17:30:42;9.35;;;2.72;;
58083;SDS011;43882;51.550;11.858;2022-12-26T17:35:43;13.98;;;4.60;;
58083;SDS011;43882;51.550;11.858;2022-12-26T17:38:19;9.93;;;3.08;;
58083;SDS011;43882;51.550;11.858;2022-12-26T17:40:47;12.50;;;3.10;;
58083;SDS011;43882;51.550;11.858;2022-12-26T17:43:24;8.40;;;2.22;;
58083;SDS011;43882;51.550;11.858;2022-12-26T17:45:54;6.13;;;2.13;;
58083;SDS011;43882;51.550;11.858;2022-12-26T17:48:20;7.03;;;2.00;;
58083;SDS011;43882;51.550;11.858;2022-12-26T17:50:47;9.70;;;2.60;;
58083;SDS011;43882;51.550;11.858;2022-12-26T17:55:46;7.90;;;2.43;;
58083;SDS011;43882;51.550;11.858;2022-12-26T17:58:13;9.48;;;2.20;;
58083;SDS011;43882;51.550;11.858;2022-12-26T18:00:40;8.18;;;2.42;;
58083;SDS011;43882;51.550;11.858;2022-12-26T18:03:07;8.73;;;2.13;;
58083;SDS011;43882;51.550;11.858;2022-12-26T18:05:33;7.82;;;2.30;;
58083;SDS011;43882;51.550;11.858;2022-12-26T18:08:00;8.95;;;2.38;;
58083;SDS011;43882;51.550;11.858;2022-12-26T18:10:27;11.60;;;2.60;;
58083;SDS011;43882;51.550;11.858;2022-12-26T18:12:55;9.30;;;2.50;;
58083;SDS011;43882;51.550;11.858;2022-12-26T18:15:22;11.13;;;2.70;;
58083;SDS011;43882;51.550;11.858;2022-12-26T18:17:53;13.43;;;3.10;;
58083;SDS011;43882;51.550;11.858;2022-12-26T18:20:21;13.85;;;3.30;;
58083;SDS011;43882;51.550;11.858;2022-12-26T18:22:48;13.00;;;3.40;;